Airfield :
LOGIN :

Register | Disclaimer

   EN    FR    IT 

 










Legend :    VFR   Marginal VFR   IFR   Intensive IFR   Very Intensive IFR
Visi :
Ceiling :
>= 8 km
>= 3000ft
5 to 8 km
1000 to 3000 ft
1500m to 5 km
500 to 1000 ft
800 to 1500m
200 to 500 ft
< 800m
< 200 ft
Symbols :   Thunderstorms  Fog  Heavy snow  Heavy precipitations  Wind > 20 kt
SIGMETs :     Misc.  Thunderstorms  Icing  Turbulence  Mountain Waves  Volcanic Ashes






- Airport Elevation : 313 ft


LFQA - Reims-Prunay

EXPIRED METARs :
  • 280300Z AUTO 18003KT 8000 -RA OVC010 08/07 Q1011
  • 280230Z AUTO 20007KT 9999 BKN015 BKN023 BKN033 08/07 Q1011
  • 280200Z AUTO 19007KT 9999 -DZ SCT013 BKN018 OVC030 08/07 Q1011
  • 272200Z AUTO 12011KT CAVOK 07/06 Q1013
  • 280130Z AUTO VRB02KT 9999 FEW014 OVC021 08/06 Q1011

TAF N/A



MET'MAP, your aeronautical weather chart ! - Copyright ORBIFLY December 2007 - Disclaimer

ORBIFLY MET'MAP TEAM :

Programming & Development : Alexandra Zaïnal
Original concept : Baudouin d'Aumeries
Technical & hardware support : Manuel Goepfert
Assistance : Marc-Olivier Méhu




SOURCES & CREDITS :

   NOAA